Main page
METAR-TAF:

METAR-TAF

Airports :

Balıkesir Koca Seyit Airport

Edremit, Turkey

latitude: 39-33-16N, longitude: 27-00-49E, elevation: 15 m

Current weather observation

The report was made 54 minutes ago, at 14:50 UTC
Wind 18 kt from the West/Southwest, varying between South/Southwest and West
Temperature 18°C
Humidity 56%
Pressure 1010 hPa
Visibility 10 km or more
Scattered clouds at a height of 3500 ft
Broken clouds at a height of 10000 ft

METAR: LTFD 261450Z 25018KT 210V270 9999 SCT035 BKN100 18/09 Q1010

Time: 18:44 (15:44 UTC)

Forecast

The report was made 2 hours and 4 minutes ago, at 13:40 UTC
Forecast valid from 26 at 15 UTC to 26 at 24 UTC
Wind 18 kt from the West/Southwest
Visibility 10 km or more
Scattered clouds at a height of 3500 ft
Broken clouds at a height of 20000 ft
Temporary
from 26 at 15 UTC to 26 at 19 UTC
Wind 22 kt from the West/Southwest with gusts up to 32 kt

TAF: LTFD 261340Z 2615/2624 25018KT 9999 SCT035 BKN200 TEMPO 2615/2619 25022G32KT

Weather observations and forecasts of more than 4000 airports (METAR and TAF reports).

The available stations are represented by yellow and red dots on the map.

Hover mouse over dot to see the name of the station.

Then click to see weather observations and forecasts.

To change the map : click on the green buttons with a black cross to zoom in, on the green button with a dash to zoom out, or on the green arrows for adjacent maps.


METAR-TAF: